Time;durP1;ratioP1;P1;durP2;ratioP2;P2;SDS_P1;SDS_P2;PMS_P1;PMS_P2;Temp;Humidity;BMP_temperature;BMP_pressure;BME280_temperature;BME280_humidity;BME280_pressure;Samples;Min_cycle;Max_cycle;Signal;HPM_P1;HPM_P2
2021/12/15 00:00:11;;;;;;;41.47;18.13;;;7.50;94.90;;;;;;5049212;28;20562;-72
2021/12/15 00:02:37;;;;;;;44.73;19.50;;;7.50;95.20;;;;;;5047710;28;20427;-73
2021/12/15 00:05:06;;;;;;;43.50;19.07;;;7.50;95.20;;;;;;5046823;28;20482;-73
2021/12/15 00:07:32;;;;;;;45.80;19.77;;;7.50;95.30;;;;;;5048298;28;20546;-71
2021/12/15 00:09:58;;;;;;;51.07;22.03;;;7.50;95.40;;;;;;5046352;28;20509;-74
2021/12/15 00:12:25;;;;;;;44.80;20.03;;;7.60;95.30;;;;;;5047347;28;20560;-73
2021/12/15 00:14:52;;;;;;;48.67;19.53;;;7.60;95.20;;;;;;5046585;28;20192;-72
2021/12/15 00:17:19;;;;;;;47.30;17.23;;;7.60;95.20;;;;;;5047444;28;20430;-73
2021/12/15 00:19:45;;;;;;;44.07;17.80;;;7.50;95.10;;;;;;5047338;28;20767;-72
2021/12/15 00:22:11;;;;;;;43.67;18.30;;;7.40;95.30;;;;;;5047678;28;20427;-73
2021/12/15 00:24:38;;;;;;;39.07;17.00;;;7.30;95.40;;;;;;5043005;28;20510;-73
2021/12/15 00:27:04;;;;;;;36.97;17.00;;;7.30;95.60;;;;;;5047190;28;20422;-72
2021/12/15 00:29:30;;;;;;;38.17;16.93;;;7.30;95.80;;;;;;5046960;28;20446;-72
2021/12/15 00:31:57;;;;;;;47.03;22.00;;;7.40;95.80;;;;;;5046049;28;20877;-72
2021/12/15 00:34:24;;;;;;;54.57;20.07;;;7.30;95.80;;;;;;5046609;28;20527;-72
2021/12/15 00:36:49;;;;;;;37.13;17.30;;;7.30;95.90;;;;;;5046778;28;20477;-73
2021/12/15 00:39:19;;;;;;;44.63;18.80;;;7.30;95.90;;;;;;5047102;28;20450;-72
2021/12/15 00:41:45;;;;;;;41.37;15.90;;;7.30;96.20;;;;;;5045211;28;20669;-73
2021/12/15 00:44:11;;;;;;;43.67;18.23;;;7.30;96.30;;;;;;5046154;28;20435;-73
2021/12/15 00:46:38;;;;;;;42.33;17.83;;;7.30;96.40;;;;;;5046568;28;20441;-71
2021/12/15 00:49:06;;;;;;;39.80;18.40;;;7.30;96.30;;;;;;5046819;28;20442;-72
2021/12/15 00:51:31;;;;;;;43.40;18.53;;;7.30;96.30;;;;;;5047241;28;20423;-73
2021/12/15 00:53:57;;;;;;;47.73;19.63;;;7.30;96.10;;;;;;5044891;28;21058;-71
2021/12/15 00:56:23;;;;;;;42.90;16.83;;;7.30;96.10;;;;;;5047171;28;20423;-74
2021/12/15 00:58:49;;;;;;;46.07;19.87;;;7.30;96.10;;;;;;5047197;28;20452;-73
2021/12/15 01:01:15;;;;;;;41.70;18.43;;;7.30;96.20;;;;;;5050055;28;20636;-73
2021/12/15 01:03:41;;;;;;;39.33;18.07;;;7.30;96.30;;;;;;5052534;28;20268;-73
2021/12/15 01:06:11;;;;;;;45.83;20.47;;;7.30;96.50;;;;;;5052838;28;20204;-72
2021/12/15 01:08:43;;;;;;;49.63;18.83;;;7.20;96.60;;;;;;5053582;28;20451;-73
2021/12/15 01:19:48;;;;;;;49.10;20.93;;;7.00;97.50;;;;;;5054212;28;20430;-73
2021/12/15 01:22:16;;;;;;;45.70;21.10;;;6.90;97.60;;;;;;5054854;28;20430;-72
2021/12/15 01:24:42;;;;;;;42.53;18.30;;;6.90;97.70;;;;;;5052104;28;20573;-72
2021/12/15 01:27:08;;;;;;;52.67;19.47;;;7.00;97.80;;;;;;5054025;28;20434;-72
2021/12/15 01:29:34;;;;;;;42.03;17.50;;;7.00;97.70;;;;;;5051447;28;20212;-72
2021/12/15 01:32:00;;;;;;;40.30;18.73;;;7.10;97.60;;;;;;5052473;28;20208;-72
2021/12/15 01:34:26;;;;;;;37.90;16.93;;;7.10;97.50;;;;;;5051090;28;20454;-73
2021/12/15 01:36:52;;;;;;;41.70;18.00;;;7.10;97.50;;;;;;5050571;28;20506;-72
2021/12/15 01:39:18;;;;;;;45.47;18.63;;;7.10;97.40;;;;;;5052273;28;20445;-72
2021/12/15 01:41:44;;;;;;;41.37;18.00;;;7.00;97.30;;;;;;5050764;28;20214;-74
2021/12/15 01:46:57;;;;;;;43.53;17.70;;;7.10;97.40;;;;;;5051810;28;20778;-72
2021/12/15 01:49:45;;;;;;;44.70;18.80;;;7.10;97.20;;;;;;5051640;28;20450;-73
2021/12/15 01:52:18;;;;;;;39.70;17.03;;;7.10;97.00;;;;;;5050558;28;20509;-72
2021/12/15 01:54:52;;;;;;;46.13;20.83;;;7.20;97.00;;;;;;5051170;28;20442;-73
2021/12/15 01:57:21;;;;;;;43.20;17.73;;;7.20;96.90;;;;;;5052086;28;20776;-73
2021/12/15 01:59:48;;;;;;;41.60;18.50;;;7.10;96.90;;;;;;5050360;28;20462;-72
2021/12/15 02:02:15;;;;;;;39.57;18.50;;;7.20;96.80;;;;;;5052021;28;20918;-72
2021/12/15 02:04:41;;;;;;;40.60;18.07;;;7.10;96.70;;;;;;5051828;28;20504;-73
2021/12/15 02:07:13;;;;;;;42.80;18.43;;;7.10;96.80;;;;;;5053160;28;20423;-71
2021/12/15 02:12:30;;;;;;;47.43;18.60;;;7.10;96.80;;;;;;5061558;28;20460;-72
2021/12/15 02:14:57;;;;;;;43.73;18.77;;;7.20;96.70;;;;;;5053821;28;20425;-72
2021/12/15 02:17:23;;;;;;;38.93;17.40;;;7.20;96.80;;;;;;5053445;28;20415;-71
2021/12/15 02:19:48;;;;;;;41.17;17.50;;;7.20;96.80;;;;;;5050878;28;20461;-72
2021/12/15 02:22:14;;;;;;;40.50;18.60;;;7.20;96.70;;;;;;5052059;28;20223;-72
2021/12/15 02:24:42;;;;;;;44.90;18.90;;;7.20;96.70;;;;;;5046133;28;20204;-73
2021/12/15 02:27:11;;;;;;;43.30;18.00;;;7.20;96.80;;;;;;5051760;28;20188;-72
2021/12/15 02:29:41;;;;;;;46.40;20.00;;;7.30;96.70;;;;;;5051534;28;20534;-73
2021/12/15 02:37:17;;;;;;;43.17;18.53;;;7.30;96.20;;;;;;5051257;28;20439;-71
2021/12/15 02:39:59;;;;;;;39.30;17.63;;;7.30;96.00;;;;;;5050070;28;20969;-73
2021/12/15 02:42:29;;;;;;;50.30;19.73;;;7.40;95.90;;;;;;5049213;28;20453;-75
2021/12/15 02:44:55;;;;;;;41.90;17.50;;;7.40;95.70;;;;;;5041184;28;20457;-72
2021/12/15 02:47:24;;;;;;;45.90;18.30;;;7.40;95.70;;;;;;5050820;28;20430;-72
2021/12/15 02:49:53;;;;;;;40.13;17.00;;;7.30;95.60;;;;;;5050592;28;20431;-72
2021/12/15 02:52:20;;;;;;;40.90;17.77;;;7.30;95.50;;;;;;5046095;28;20795;-73
2021/12/15 02:54:46;;;;;;;41.67;18.03;;;7.30;95.50;;;;;;5048996;28;20458;-73
2021/12/15 02:57:13;;;;;;;41.23;19.13;;;7.30;95.70;;;;;;5050779;28;20431;-73
2021/12/15 02:59:57;;;;;;;46.07;17.77;;;7.20;95.80;;;;;;5050605;28;20439;-72
2021/12/15 03:05:19;;;;;;;38.37;16.60;;;7.30;96.10;;;;;;5038840;28;20492;-73
2021/12/15 03:08:01;;;;;;;42.17;16.97;;;7.30;96.10;;;;;;5050571;28;20428;-72
2021/12/15 03:15:57;;;;;;;39.77;17.80;;;7.40;95.70;;;;;;5050234;28;20861;-74
2021/12/15 03:18:25;;;;;;;31.23;14.43;;;7.40;95.70;;;;;;5050760;28;20459;-73
2021/12/15 03:20:54;;;;;;;41.07;17.03;;;7.40;95.80;;;;;;5049574;28;20457;-73
2021/12/15 03:23:26;;;;;;;34.30;16.37;;;7.40;95.60;;;;;;5049420;28;20465;-73
2021/12/15 03:25:53;;;;;;;37.30;15.20;;;7.50;95.20;;;;;;5050035;28;20469;-74
2021/12/15 03:39:11;;;;;;;30.83;15.57;;;7.50;94.90;;;;;;5034102;28;20435;-73
2021/12/15 03:41:37;;;;;;;43.70;18.90;;;7.40;95.00;;;;;;5048387;28;20435;-74
2021/12/15 03:44:06;;;;;;;45.40;19.57;;;7.40;95.10;;;;;;5047939;28;20443;-73
2021/12/15 03:46:32;;;;;;;45.33;18.90;;;7.40;95.20;;;;;;5048615;28;20438;-74
2021/12/15 03:48:58;;;;;;;44.00;19.53;;;7.30;95.20;;;;;;5049886;28;20529;-73
2021/12/15 03:51:24;;;;;;;40.53;17.47;;;7.30;95.30;;;;;;5050671;28;20511;-73
2021/12/15 03:53:50;;;;;;;36.60;14.53;;;7.30;95.50;;;;;;5050109;28;20419;-73
2021/12/15 03:56:16;;;;;;;25.20;12.53;;;7.30;95.60;;;;;;5050100;28;20434;-72
2021/12/15 03:58:43;;;;;;;26.60;12.00;;;7.30;95.70;;;;;;5050379;28;20265;-72
2021/12/15 04:01:13;;;;;;;18.47;9.00;;;7.30;95.50;;;;;;5048861;28;20435;-73
2021/12/15 04:03:42;;;;;;;12.63;7.10;;;7.40;95.20;;;;;;5048614;28;20439;-73
2021/12/15 04:06:11;;;;;;;13.43;7.10;;;7.40;94.80;;;;;;5050262;28;20553;-72
2021/12/15 04:08:37;;;;;;;14.07;7.73;;;7.40;94.50;;;;;;5049649;28;20917;-72
2021/12/15 04:11:05;;;;;;;13.33;6.80;;;7.40;94.10;;;;;;5049344;28;20921;-73
2021/12/15 04:13:31;;;;;;;11.13;6.20;;;7.40;94.00;;;;;;5048918;28;20415;-73
2021/12/15 04:16:04;;;;;;;13.13;6.27;;;7.40;93.80;;;;;;5047779;28;20445;-72
2021/12/15 04:18:31;;;;;;;13.57;6.83;;;7.40;93.60;;;;;;5049540;28;20665;-72
2021/12/15 04:20:57;;;;;;;12.27;6.83;;;7.50;93.50;;;;;;5048856;28;20423;-73
2021/12/15 04:23:23;;;;;;;12.17;7.47;;;7.50;93.40;;;;;;5048697;28;20427;-74
2021/12/15 04:25:54;;;;;;;15.57;6.87;;;7.50;93.20;;;;;;5049039;28;20480;-72
2021/12/15 04:28:26;;;;;;;12.97;6.17;;;7.50;93.10;;;;;;5048153;28;20976;-73
2021/12/15 04:30:54;;;;;;;13.80;7.17;;;7.50;92.90;;;;;;5048301;28;20419;-73
2021/12/15 04:33:50;;;;;;;13.30;6.80;;;7.40;93.00;;;;;;5050165;28;20805;-74
2021/12/15 04:36:17;;;;;;;11.30;6.27;;;7.40;93.10;;;;;;5043044;28;20431;-73
2021/12/15 04:38:43;;;;;;;11.57;6.73;;;7.40;93.30;;;;;;5053438;28;20442;-74
2021/12/15 04:41:12;;;;;;;12.03;6.80;;;7.40;93.30;;;;;;5053792;28;20896;-72
2021/12/15 04:43:40;;;;;;;13.20;7.00;;;7.40;93.20;;;;;;5052879;28;20431;-73
2021/12/15 04:46:08;;;;;;;16.43;7.63;;;7.50;93.00;;;;;;5053401;28;20462;-73
2021/12/15 04:48:36;;;;;;;11.23;6.63;;;7.50;92.90;;;;;;5054285;28;20418;-73
2021/12/15 04:51:03;;;;;;;15.33;8.90;;;7.50;92.80;;;;;;5054785;28;20462;-73
2021/12/15 04:53:37;;;;;;;15.07;8.57;;;7.40;92.90;;;;;;5052631;28;20419;-71
2021/12/15 04:56:04;;;;;;;20.57;9.10;;;7.40;93.00;;;;;;5052294;28;20520;-72
2021/12/15 04:58:30;;;;;;;19.30;9.40;;;7.40;93.20;;;;;;5053716;28;20441;-73
2021/12/15 05:01:00;;;;;;;16.83;8.50;;;7.40;93.20;;;;;;5054510;28;20418;-72
2021/12/15 05:03:26;;;;;;;20.03;9.23;;;7.40;93.00;;;;;;5052670;28;20280;-71
2021/12/15 05:05:52;;;;;;;18.30;10.30;;;7.40;93.10;;;;;;5054346;28;20523;-72
2021/12/15 05:08:19;;;;;;;18.10;10.27;;;7.40;93.00;;;;;;5054631;28;20415;-72
2021/12/15 05:10:46;;;;;;;20.17;10.07;;;7.40;93.00;;;;;;5055753;28;20426;-72
2021/12/15 05:13:12;;;;;;;22.70;9.73;;;7.40;93.10;;;;;;5055855;28;20465;-72
2021/12/15 05:15:40;;;;;;;16.53;8.90;;;7.40;93.10;;;;;;5050011;28;20815;-73
2021/12/15 05:18:07;;;;;;;25.50;10.43;;;7.40;93.10;;;;;;5043528;28;20530;-71
2021/12/15 05:20:35;;;;;;;18.07;10.00;;;7.40;92.90;;;;;;5053561;28;20459;-72
2021/12/15 05:23:03;;;;;;;16.20;8.40;;;7.40;92.70;;;;;;5048097;28;20449;-73
2021/12/15 05:25:29;;;;;;;14.47;8.57;;;7.40;92.60;;;;;;5052854;28;20522;-72
2021/12/15 05:27:55;;;;;;;16.00;8.73;;;7.40;92.30;;;;;;5049377;28;20845;-72
2021/12/15 05:30:21;;;;;;;14.43;7.73;;;7.40;92.00;;;;;;5052356;28;20439;-72
2021/12/15 05:32:48;;;;;;;17.90;9.57;;;7.30;91.90;;;;;;5051755;28;20473;-72
2021/12/15 05:35:20;;;;;;;16.13;9.10;;;7.30;92.00;;;;;;5052725;28;20430;-72
2021/12/15 05:37:47;;;;;;;20.93;11.13;;;7.30;92.20;;;;;;5052620;28;20446;-75
2021/12/15 05:40:13;;;;;;;23.53;9.67;;;7.30;92.40;;;;;;5049583;28;20624;-72
2021/12/15 05:42:39;;;;;;;18.90;8.87;;;7.40;92.50;;;;;;5050118;28;20446;-72
2021/12/15 05:45:06;;;;;;;20.03;9.20;;;7.30;92.30;;;;;;5051494;28;20528;-73
2021/12/15 05:47:32;;;;;;;16.80;8.47;;;7.30;92.20;;;;;;5053943;28;20441;-72
2021/12/15 05:49:58;;;;;;;18.20;8.17;;;7.30;92.20;;;;;;5054145;28;20802;-73
2021/12/15 05:52:30;;;;;;;19.20;9.07;;;7.30;92.30;;;;;;5053073;28;20422;-72
2021/12/15 05:54:57;;;;;;;16.43;9.07;;;7.30;92.20;;;;;;5041903;28;20936;-73
2021/12/15 05:57:23;;;;;;;15.53;8.20;;;7.30;92.20;;;;;;5054091;28;20426;-72
2021/12/15 05:59:49;;;;;;;16.60;8.83;;;7.30;92.10;;;;;;5054873;28;20546;-73
2021/12/15 06:02:15;;;;;;;18.10;10.37;;;7.30;92.00;;;;;;5054933;28;21058;-72
2021/12/15 06:04:41;;;;;;;18.63;9.90;;;7.30;92.10;;;;;;5053556;28;20469;-73
2021/12/15 06:07:07;;;;;;;16.03;8.47;;;7.30;92.20;;;;;;5052072;28;20617;-72
2021/12/15 06:09:34;;;;;;;20.43;9.90;;;7.30;92.30;;;;;;5051586;28;20439;-72
2021/12/15 06:12:01;;;;;;;21.30;9.90;;;7.30;92.30;;;;;;5052214;28;20855;-72
2021/12/15 06:14:28;;;;;;;21.30;9.70;;;7.30;92.20;;;;;;5051933;28;20427;-72
2021/12/15 06:17:12;;;;;;;17.33;8.50;;;7.40;92.20;;;;;;5043812;28;20418;-73
2021/12/15 06:19:38;;;;;;;18.40;9.37;;;7.30;92.30;;;;;;5051812;28;20430;-73
2021/12/15 06:22:06;;;;;;;20.83;10.77;;;7.40;92.20;;;;;;5050455;28;20419;-72
2021/12/15 06:24:32;;;;;;;22.57;10.17;;;7.30;92.30;;;;;;5051484;28;20466;-72
2021/12/15 06:27:04;;;;;;;20.20;10.30;;;7.40;92.40;;;;;;5051653;28;20492;-72
2021/12/15 06:29:31;;;;;;;15.70;9.47;;;7.40;92.40;;;;;;5051654;28;20953;-73
2021/12/15 06:31:57;;;;;;;19.90;11.00;;;7.50;92.60;;;;;;5051508;28;20422;-72
2021/12/15 06:34:23;;;;;;;19.20;10.63;;;7.50;92.30;;;;;;5051346;28;20446;-74
2021/12/15 06:36:49;;;;;;;16.43;9.27;;;7.40;92.30;;;;;;5051460;28;20840;-72
2021/12/15 06:39:15;;;;;;;21.83;11.20;;;7.50;92.30;;;;;;5046435;28;20232;-73
2021/12/15 06:41:41;;;;;;;18.80;10.33;;;7.50;92.10;;;;;;5051972;28;20480;-72
2021/12/15 06:44:09;;;;;;;20.70;11.07;;;7.50;92.10;;;;;;5045287;28;20442;-73
2021/12/15 07:00:15;;;;;;;22.10;11.33;;;7.50;91.80;;;;;;5028243;28;20446;-73
2021/12/15 07:02:41;;;;;;;22.30;11.67;;;7.60;91.80;;;;;;5050995;28;20458;-73
2021/12/15 07:05:08;;;;;;;26.77;12.37;;;7.60;91.80;;;;;;5050834;28;20561;-74
2021/12/15 07:07:35;;;;;;;22.27;11.60;;;7.60;91.80;;;;;;5050136;28;20510;-72
2021/12/15 07:10:03;;;;;;;24.70;12.40;;;7.60;91.70;;;;;;5051695;28;20529;-72
2021/12/15 07:12:29;;;;;;;27.97;12.83;;;7.60;91.70;;;;;;5051114;28;20430;-73
2021/12/15 07:14:55;;;;;;;25.37;13.50;;;7.60;91.50;;;;;;5051635;28;20423;-73
2021/12/15 07:17:23;;;;;;;27.27;12.90;;;7.50;91.60;;;;;;5052344;28;20189;-72
2021/12/15 07:22:34;;;;;;;30.77;14.47;;;7.50;91.70;;;;;;5051811;28;20446;-74
2021/12/15 07:25:02;;;;;;;24.23;14.00;;;7.50;91.80;;;;;;5044652;28;21053;-73
2021/12/15 07:27:28;;;;;;;29.30;14.47;;;7.50;91.70;;;;;;5050676;28;20422;-71
2021/12/15 07:29:54;;;;;;;24.63;13.50;;;7.50;91.60;;;;;;5051183;28;20482;-72
2021/12/15 07:32:20;;;;;;;29.90;14.10;;;7.50;91.80;;;;;;5051256;28;20223;-73
2021/12/15 07:34:46;;;;;;;30.10;13.97;;;7.40;91.80;;;;;;5049474;28;20180;-72
2021/12/15 07:37:13;;;;;;;30.40;14.50;;;7.40;91.90;;;;;;5051983;28;20468;-72
2021/12/15 07:39:44;;;;;;;28.03;13.57;;;7.40;92.00;;;;;;5050325;28;20659;-72
2021/12/15 07:42:12;;;;;;;29.17;13.63;;;7.40;92.00;;;;;;5050507;28;20431;-72
2021/12/15 07:44:38;;;;;;;28.23;13.10;;;7.40;92.00;;;;;;5050309;28;21166;-71
2021/12/15 07:47:06;;;;;;;26.83;13.10;;;7.40;91.80;;;;;;5050539;28;20422;-72
2021/12/15 07:49:32;;;;;;;24.30;12.77;;;7.40;91.80;;;;;;5050399;28;20450;-72
2021/12/15 07:52:04;;;;;;;28.53;12.97;;;7.40;91.70;;;;;;5051635;28;20415;-72
2021/12/15 07:54:35;;;;;;;26.07;11.73;;;7.40;91.60;;;;;;5050796;28;20775;-73
2021/12/15 07:57:10;;;;;;;23.97;12.07;;;7.30;91.30;;;;;;5042113;28;20427;-73
2021/12/15 07:59:36;;;;;;;23.37;11.93;;;7.30;91.30;;;;;;5050944;28;20458;-73
2021/12/15 08:02:03;;;;;;;25.03;12.17;;;7.20;91.50;;;;;;5050784;28;20419;-72
2021/12/15 08:04:28;;;;;;;26.07;13.50;;;7.20;91.80;;;;;;5050996;28;20453;-73
2021/12/15 08:06:54;;;;;;;21.70;10.43;;;7.30;91.80;;;;;;5053284;28;20761;-72
2021/12/15 08:09:22;;;;;;;24.83;11.73;;;7.30;91.60;;;;;;5051447;28;20204;-72
2021/12/15 08:11:48;;;;;;;21.90;10.90;;;7.30;91.60;;;;;;5056066;28;20181;-73
2021/12/15 08:14:15;;;;;;;21.37;11.70;;;7.30;91.50;;;;;;5056210;28;20430;-73
2021/12/15 08:16:41;;;;;;;19.53;10.53;;;7.30;91.60;;;;;;5057418;28;20414;-73
2021/12/15 08:19:08;;;;;;;20.30;10.43;;;7.30;91.50;;;;;;5053557;28;20466;-72
2021/12/15 08:21:34;;;;;;;21.40;10.80;;;7.30;91.30;;;;;;5051168;28;20430;-73
2021/12/15 08:24:00;;;;;;;19.10;9.87;;;7.30;91.30;;;;;;5050747;28;20777;-73
2021/12/15 08:26:26;;;;;;;18.23;9.93;;;7.30;91.20;;;;;;5050925;28;20450;-73
2021/12/15 08:28:53;;;;;;;20.70;9.70;;;7.40;91.10;;;;;;5051746;28;21014;-74
2021/12/15 08:31:19;;;;;;;21.30;10.27;;;7.40;91.00;;;;;;5052082;28;20950;-73
2021/12/15 08:33:45;;;;;;;18.20;10.50;;;7.40;91.00;;;;;;5050689;28;20422;-74
2021/12/15 08:36:13;;;;;;;20.50;9.73;;;7.50;90.80;;;;;;5050663;28;20423;-73
2021/12/15 08:38:41;;;;;;;18.93;8.67;;;7.50;90.60;;;;;;5053690;28;20510;-72
2021/12/15 08:41:10;;;;;;;13.27;8.10;;;7.50;90.30;;;;;;5051714;28;20434;-73
2021/12/15 08:43:36;;;;;;;14.77;9.10;;;7.60;90.10;;;;;;5051098;28;20668;-72
2021/12/15 08:46:14;;;;;;;16.60;8.73;;;7.60;90.00;;;;;;5052292;28;20940;-72
2021/12/15 08:48:40;;;;;;;15.43;8.60;;;7.60;89.50;;;;;;5051792;28;20441;-72
2021/12/15 08:51:10;;;;;;;16.10;8.63;;;7.60;89.30;;;;;;5051951;28;20434;-73
2021/12/15 08:53:38;;;;;;;13.60;7.40;;;7.70;89.00;;;;;;5051595;28;20426;-74
2021/12/15 08:56:04;;;;;;;17.93;7.90;;;7.70;88.90;;;;;;5051915;28;20933;-73
2021/12/15 08:58:30;;;;;;;13.57;7.57;;;7.60;88.30;;;;;;5051018;28;20425;-74
2021/12/15 09:00:57;;;;;;;15.60;8.23;;;7.70;88.40;;;;;;5050806;28;20468;-73
2021/12/15 09:03:24;;;;;;;12.83;7.53;;;7.60;88.10;;;;;;5051851;28;20185;-74
2021/12/15 09:05:52;;;;;;;12.40;7.30;;;7.60;88.10;;;;;;5050995;28;20463;-72
2021/12/15 09:08:19;;;;;;;9.70;6.10;;;7.60;87.80;;;;;;5047020;28;20502;-73
2021/12/15 09:10:46;;;;;;;15.00;7.67;;;7.60;87.70;;;;;;5049744;28;20953;-74
2021/12/15 09:13:13;;;;;;;14.90;7.57;;;7.60;87.80;;;;;;5049954;28;20411;-74
2021/12/15 09:15:41;;;;;;;11.53;6.80;;;7.50;87.40;;;;;;5048737;28;20423;-73
2021/12/15 09:18:08;;;;;;;12.40;6.30;;;7.50;87.60;;;;;;5049942;28;20427;-73
2021/12/15 09:20:35;;;;;;;14.70;6.90;;;7.50;88.00;;;;;;5051669;28;20442;-74
2021/12/15 09:23:03;;;;;;;13.00;7.70;;;7.50;88.00;;;;;;5054200;28;20438;-72
2021/12/15 09:25:29;;;;;;;14.20;6.70;;;7.50;88.30;;;;;;5051707;28;20466;-73
2021/12/15 09:27:58;;;;;;;12.23;6.57;;;7.60;88.00;;;;;;5053083;28;20441;-73
2021/12/15 09:30:27;;;;;;;16.07;6.80;;;7.60;87.80;;;;;;5053124;28;20460;-73
2021/12/15 09:32:53;;;;;;;15.17;7.53;;;7.60;87.60;;;;;;5052803;28;20419;-73
2021/12/15 09:35:20;;;;;;;13.73;7.10;;;7.60;87.70;;;;;;5053427;28;20522;-73
2021/12/15 09:37:47;;;;;;;13.00;6.40;;;7.60;87.70;;;;;;5053200;28;20438;-72
2021/12/15 09:40:14;;;;;;;13.70;6.70;;;7.60;87.40;;;;;;5053121;28;20447;-73
2021/12/15 09:42:40;;;;;;;14.10;6.43;;;7.60;87.10;;;;;;5053098;28;20461;-72
2021/12/15 09:45:29;;;;;;;14.30;6.40;;;7.50;87.10;;;;;;5052288;28;20504;-74
2021/12/15 10:07:14;;;;;;;13.00;6.80;;;7.50;87.30;;;;;;5051657;28;20589;-73
2021/12/15 10:17:54;;;;;;;12.03;5.60;;;7.30;87.10;;;;;;5052103;28;20936;-72
2021/12/15 10:20:26;;;;;;;12.50;6.67;;;7.30;87.30;;;;;;5052564;28;20804;-72
2021/12/15 10:22:58;;;;;;;9.90;5.50;;;7.30;87.60;;;;;;5051807;28;20835;-73
2021/12/15 10:25:33;;;;;;;11.33;6.20;;;7.40;87.70;;;;;;5056488;28;20474;-72
2021/12/15 10:28:06;;;;;;;17.50;7.33;;;7.40;87.70;;;;;;5058433;28;20513;-72
2021/12/15 10:30:42;;;;;;;12.70;6.90;;;7.40;87.70;;;;;;5054259;28;20435;-73
2021/12/15 10:33:13;;;;;;;14.60;7.63;;;7.40;87.60;;;;;;5053693;28;20442;-72
2021/12/15 10:36:10;;;;;;;14.77;8.40;;;7.40;87.60;;;;;;5056379;28;20427;-72
2021/12/15 10:38:52;;;;;;;14.53;7.37;;;7.50;87.40;;;;;;5045306;28;20569;-73
2021/12/15 10:41:33;;;;;;;14.00;6.70;;;7.50;87.60;;;;;;5055949;28;20480;-72
2021/12/15 10:44:02;;;;;;;11.10;6.70;;;7.50;87.10;;;;;;5051030;28;20434;-73
2021/12/15 10:46:29;;;;;;;17.07;8.13;;;7.50;87.10;;;;;;5051360;28;20485;-73
2021/12/15 10:48:57;;;;;;;13.50;7.43;;;7.50;87.00;;;;;;5042864;28;20809;-71
2021/12/15 10:52:05;;;;;;;14.23;6.90;;;7.50;86.90;;;;;;5054167;28;20419;-72
2021/12/15 10:54:33;;;;;;;13.37;6.30;;;7.50;86.80;;;;;;5053658;28;20461;-73
2021/12/15 10:57:08;;;;;;;13.07;7.47;;;7.50;87.10;;;;;;5043558;28;20430;-73
2021/12/15 10:59:41;;;;;;;13.17;7.27;;;7.50;86.90;;;;;;5049798;28;20443;-72
2021/12/15 11:02:10;;;;;;;13.13;6.83;;;7.60;86.50;;;;;;5051182;28;20429;-72
2021/12/15 11:04:45;;;;;;;13.07;7.03;;;7.60;86.30;;;;;;5050459;28;20446;-72
2021/12/15 11:07:17;;;;;;;14.90;7.77;;;7.50;86.20;;;;;;5050019;28;20426;-72
2021/12/15 11:09:56;;;;;;;13.47;7.13;;;7.50;86.20;;;;;;5049581;28;20447;-73
2021/12/15 11:12:37;;;;;;;15.43;8.07;;;7.50;86.60;;;;;;5051652;28;20423;-73
2021/12/15 11:15:26;;;;;;;14.00;7.80;;;7.50;86.90;;;;;;5043640;28;20897;-73
2021/12/15 11:17:56;;;;;;;13.60;7.60;;;7.50;86.80;;;;;;5050500;28;20427;-73
2021/12/15 11:20:23;;;;;;;13.43;7.33;;;7.60;86.80;;;;;;5050935;28;20446;-70
2021/12/15 11:22:50;;;;;;;13.23;7.40;;;7.70;86.50;;;;;;5050233;28;20466;-73
2021/12/15 11:25:21;;;;;;;13.43;7.50;;;7.50;85.90;;;;;;5048917;28;20458;-73
2021/12/15 11:27:56;;;;;;;12.17;7.37;;;7.50;86.60;;;;;;5049770;28;20418;-72
2021/12/15 11:30:36;;;;;;;13.47;7.50;;;7.50;86.80;;;;;;5051158;28;20434;-72
2021/12/15 11:33:09;;;;;;;13.13;7.40;;;7.60;86.60;;;;;;5044107;28;20426;-71
2021/12/15 11:35:39;;;;;;;19.23;8.03;;;7.60;86.50;;;;;;5052753;28;20945;-73
2021/12/15 11:38:27;;;;;;;14.27;7.90;;;7.60;86.00;;;;;;5055779;28;20994;-73
2021/12/15 11:40:53;;;;;;;13.20;6.70;;;7.60;86.20;;;;;;5045122;28;20480;-72
2021/12/15 11:43:39;;;;;;;11.10;6.23;;;7.60;85.70;;;;;;5049844;28;20446;-72
2021/12/15 11:46:40;;;;;;;13.43;6.10;;;7.50;85.60;;;;;;5050515;28;20682;-72
2021/12/15 11:49:05;;;;;;;13.60;7.67;;;7.50;85.90;;;;;;5042498;28;20493;-73
2021/12/15 11:51:42;;;;;;;13.50;7.40;;;7.40;86.60;;;;;;5050794;28;20454;-71
2021/12/15 11:54:24;;;;;;;17.10;7.53;;;7.50;86.90;;;;;;5051052;28;20264;-72
2021/12/15 11:57:00;;;;;;;12.90;7.20;;;7.40;86.30;;;;;;5049768;28;20449;-72
2021/12/15 11:59:30;;;;;;;11.27;7.03;;;7.40;86.30;;;;;;5048418;28;20445;-71
2021/12/15 12:02:03;;;;;;;13.10;7.63;;;7.50;86.60;;;;;;5050231;28;20464;-72
2021/12/15 12:04:35;;;;;;;14.00;8.00;;;7.50;86.60;;;;;;5049990;28;20973;-72
2021/12/15 12:07:21;;;;;;;14.70;8.43;;;7.50;86.00;;;;;;5043505;28;20454;-72
2021/12/15 12:10:10;;;;;;;13.37;7.43;;;7.50;86.00;;;;;;5051189;28;20450;-72
2021/12/15 12:12:42;;;;;;;14.63;7.13;;;7.50;86.30;;;;;;5052550;28;20505;-72
2021/12/15 12:15:13;;;;;;;13.43;8.10;;;7.50;85.90;;;;;;5051338;28;20446;-72
2021/12/15 12:17:42;;;;;;;16.37;7.60;;;7.50;85.90;;;;;;5053669;28;20430;-71
2021/12/15 12:20:15;;;;;;;15.97;8.20;;;7.40;86.20;;;;;;5053462;28;20489;-72
2021/12/15 12:22:43;;;;;;;14.00;7.80;;;7.40;86.20;;;;;;5052365;28;20889;-73
2021/12/15 12:25:23;;;;;;;17.27;9.03;;;7.40;86.60;;;;;;5049336;28;20455;-73
2021/12/15 12:27:49;;;;;;;12.73;7.73;;;7.40;86.60;;;;;;5048520;28;20446;-72
2021/12/15 12:30:23;;;;;;;12.23;7.77;;;7.50;86.60;;;;;;5049944;28;20471;-71
2021/12/15 12:32:49;;;;;;;12.23;7.60;;;7.40;86.60;;;;;;5050404;28;20458;-72
2021/12/15 12:35:22;;;;;;;15.00;8.10;;;7.40;86.60;;;;;;5050533;28;20419;-72
2021/12/15 12:38:10;;;;;;;12.00;7.13;;;7.50;86.50;;;;;;5049697;28;22341;-72
2021/12/15 12:40:47;;;;;;;14.40;7.23;;;7.50;86.80;;;;;;5050235;28;20568;-72
2021/12/15 12:43:38;;;;;;;13.20;7.87;;;7.60;86.50;;;;;;5048536;28;20451;-73
2021/12/15 12:46:21;;;;;;;14.87;8.17;;;7.70;86.00;;;;;;5049841;28;20469;-73
2021/12/15 12:50:08;;;;;;;11.97;7.90;;;7.50;85.60;;;;;;5048415;28;20453;-71
2021/12/15 13:00:53;;;;;;;12.13;7.63;;;7.40;87.00;;;;;;5032681;28;20450;-71
2021/12/15 13:03:25;;;;;;;12.47;7.90;;;7.50;87.00;;;;;;5052526;28;21040;-71
2021/12/15 13:05:56;;;;;;;11.30;8.00;;;7.50;86.30;;;;;;5052898;28;20470;-72
2021/12/15 13:08:45;;;;;;;11.03;7.20;;;7.40;86.60;;;;;;5050389;28;20437;-72
2021/12/15 13:11:18;;;;;;;10.50;7.33;;;7.50;86.60;;;;;;5050684;28;20921;-73
2021/12/15 13:14:08;;;;;;;14.40;8.87;;;7.50;86.60;;;;;;5052887;28;20414;-72
2021/12/15 13:16:54;;;;;;;12.27;8.10;;;7.50;86.60;;;;;;5051180;28;20458;-73
2021/12/15 13:19:34;;;;;;;14.10;8.30;;;7.50;86.60;;;;;;5054164;28;20501;-73
2021/12/15 13:30:36;;;;;;;15.90;8.90;;;7.30;86.60;;;;;;5053136;28;20437;-72
2021/12/15 13:33:11;;;;;;;44.90;17.60;;;7.30;87.10;;;;;;5053008;28;20425;-72
2021/12/15 13:36:08;;;;;;;35.83;15.40;;;7.30;87.10;;;;;;5052722;28;20418;-72
2021/12/15 13:38:39;;;;;;;17.80;8.93;;;7.20;87.40;;;;;;5054125;28;20430;-73
2021/12/15 13:41:19;;;;;;;16.53;9.77;;;7.20;88.00;;;;;;5057669;28;20505;-71
2021/12/15 13:43:56;;;;;;;14.20;8.70;;;7.30;87.80;;;;;;5054700;28;20534;-72
2021/12/15 13:46:28;;;;;;;12.63;7.47;;;7.30;87.60;;;;;;5053903;28;20950;-72
2021/12/15 13:48:56;;;;;;;13.03;7.73;;;7.40;88.00;;;;;;5053446;28;20442;-72
2021/12/15 13:51:54;;;;;;;13.57;7.80;;;7.40;87.70;;;;;;5056035;28;20490;-72
2021/12/15 13:54:40;;;;;;;13.37;7.80;;;7.40;87.40;;;;;;5050812;28;20454;-72
2021/12/15 13:57:12;;;;;;;12.07;7.90;;;7.50;86.90;;;;;;5037938;28;20447;-71
2021/12/15 14:00:02;;;;;;;11.33;6.93;;;7.40;86.60;;;;;;5050537;28;20443;-73
2021/12/15 14:02:30;;;;;;;10.30;7.23;;;7.40;87.00;;;;;;5052529;28;20419;-72
2021/12/15 14:05:08;;;;;;;13.23;7.43;;;7.20;87.00;;;;;;5051626;28;20465;-72
2021/12/15 14:07:35;;;;;;;11.57;7.60;;;7.10;87.60;;;;;;5051122;28;20425;-72
2021/12/15 14:10:09;;;;;;;10.87;7.63;;;7.10;88.10;;;;;;5050703;28;20439;-73
2021/12/15 14:12:44;;;;;;;12.97;7.53;;;7.00;88.70;;;;;;5050161;28;21133;-72
2021/12/15 14:15:13;;;;;;;11.20;7.43;;;7.10;88.90;;;;;;5052409;28;20502;-72
2021/12/15 14:17:39;;;;;;;12.17;6.43;;;7.10;88.70;;;;;;5049935;28;20454;-72
2021/12/15 14:20:14;;;;;;;14.17;9.07;;;7.20;88.60;;;;;;5054146;28;20478;-72
2021/12/15 14:22:41;;;;;;;12.20;7.90;;;7.20;88.30;;;;;;5056516;28;20414;-73
2021/12/15 14:25:08;;;;;;;16.37;8.93;;;7.10;88.30;;;;;;5051250;28;20475;-72
2021/12/15 14:27:33;;;;;;;11.90;6.80;;;7.20;88.30;;;;;;5051063;28;20426;-73
2021/12/15 14:29:59;;;;;;;10.00;6.30;;;7.20;88.30;;;;;;5051429;28;20933;-74
2021/12/15 14:32:27;;;;;;;13.60;7.20;;;7.20;88.40;;;;;;5051109;28;20477;-73
2021/12/15 14:34:56;;;;;;;12.90;7.80;;;7.20;88.30;;;;;;5043191;28;20431;-73
2021/12/15 14:37:22;;;;;;;10.00;6.97;;;7.20;88.40;;;;;;5051078;28;20430;-71